Time;durP1;ratioP1;P1;durP2;ratioP2;P2;SDS_P1;SDS_P2;PMS_P1;PMS_P2;Temp;Humidity;BMP_temperature;BMP_pressure;BME280_temperature;BME280_humidity;BME280_pressure;Samples;Min_cycle;Max_cycle;Signal;HPM_P1;HPM_P2
2022/07/28 00:00:28;;;;;;;;;6.00;6.00;;;30.62;97529.19;;;;119010;1189;25973;-72
2022/07/28 00:03:06;;;;;;;;;7.00;7.00;;;30.64;97529.23;;;;119142;1188;25720;-73
2022/07/28 00:05:34;;;;;;;;;8.50;8.50;;;30.65;97526.95;;;;118976;1190;24941;-72
2022/07/28 00:08:02;;;;;;;;;10.25;8.75;;;30.63;97531.54;;;;119071;1188;25219;-73
2022/07/28 00:10:31;;;;;;;;;9.25;8.25;;;30.62;97529.84;;;;119040;1189;25826;-72
2022/07/28 00:12:59;;;;;;;;;8.25;7.25;;;30.61;97529.77;;;;119128;1188;25273;-72
2022/07/28 00:15:27;;;;;;;;;7.00;7.00;;;30.60;97531.15;;;;119154;1187;25260;-73
2022/07/28 00:17:55;;;;;;;;;7.50;7.50;;;30.61;97528.62;;;;119215;1187;24947;-72
2022/07/28 00:20:23;;;;;;;;;6.75;6.75;;;30.61;97527.79;;;;119100;1188;25422;-72
2022/07/28 00:22:50;;;;;;;;;7.25;7.25;;;30.61;97530.19;;;;118991;1189;25402;-73
2022/07/28 00:25:19;;;;;;;;;8.33;8.33;;;30.60;97536.91;;;;119023;1189;25427;-72
2022/07/28 00:27:47;;;;;;;;;9.33;7.33;;;30.60;97535.22;;;;119027;1187;25669;-72
2022/07/28 00:30:15;;;;;;;;;7.00;7.00;;;30.60;97535.06;;;;118990;1190;25808;-73
2022/07/28 00:32:43;;;;;;;;;8.33;7.00;;;30.60;97535.13;;;;119102;1187;25055;-73
2022/07/28 00:35:11;;;;;;;;;7.00;7.00;;;30.59;97533.33;;;;119101;1188;25128;-72
2022/07/28 00:37:41;;;;;;;;;8.75;6.50;;;30.59;97530.03;;;;119145;1187;25689;-72
2022/07/28 00:40:10;;;;;;;;;7.25;7.25;;;30.58;97529.35;;;;119154;1186;25252;-72
2022/07/28 00:42:38;;;;;;;;;7.50;6.75;;;30.58;97532.27;;;;118998;1190;25740;-72
2022/07/28 00:45:06;;;;;;;;;7.50;7.25;;;30.58;97533.63;;;;119010;1189;25923;-72
2022/07/28 00:47:34;;;;;;;;;5.00;5.00;;;30.57;97533.59;;;;118979;1189;25115;-73
2022/07/28 00:50:03;;;;;;;;;7.50;6.25;;;30.57;97533.61;;;;118981;1189;25688;-73
2022/07/28 00:52:32;;;;;;;;;6.50;6.00;;;30.57;97533.77;;;;119001;1188;26395;-72
2022/07/28 00:55:02;;;;;;;;;8.00;6.33;;;30.57;97533.14;;;;118957;1189;25009;-72
2022/07/28 00:57:30;;;;;;;;;7.25;7.25;;;30.57;97529.86;;;;119055;1187;26047;-72
2022/07/28 00:59:58;;;;;;;;;6.25;6.25;;;30.59;97527.47;;;;119043;1188;24945;-72
2022/07/28 01:02:26;;;;;;;;;6.75;6.00;;;30.59;97530.49;;;;119001;1189;25470;-72
2022/07/28 01:04:54;;;;;;;;;5.00;4.00;;;30.60;97529.02;;;;118984;1189;25627;-72
2022/07/28 01:07:44;;;;;;;;;8.00;6.00;;;30.59;97528.02;;;;118962;1189;25811;-71
2022/07/28 01:10:18;;;;;;;;;7.00;6.50;;;30.61;97524.75;;;;119031;1188;24988;-72
2022/07/28 01:13:30;;;;;;;;;7.25;6.00;;;30.62;97529.00;;;;118997;1189;24984;-71
2022/07/28 01:16:04;;;;;;;;;7.00;7.00;;;30.70;97531.08;;;;118983;1187;24729;-72
2022/07/28 01:18:42;;;;;;;;;7.00;6.50;;;30.70;97532.73;;;;118952;1189;25775;-72
2022/07/28 01:21:13;;;;;;;;;6.50;6.50;;;30.69;97531.04;;;;118988;1189;25592;-73
2022/07/28 01:24:09;;;;;;;;;8.33;8.00;;;30.67;97527.46;;;;118995;1189;25270;-71
2022/07/28 01:26:47;;;;;;;;;7.25;7.00;;;30.71;97525.26;;;;119066;1189;25284;-72
2022/07/28 01:29:27;;;;;;;;;7.00;6.00;;;30.75;97522.75;;;;119058;1188;25282;-73
2022/07/28 01:32:07;;;;;;;;;6.00;5.00;;;30.75;97521.13;;;;118983;1188;25121;-73
2022/07/28 01:34:49;;;;;;;;;6.50;6.50;;;30.70;97524.09;;;;119059;1189;26372;-73
2022/07/28 01:37:19;;;;;;;;;6.67;6.00;;;30.68;97517.77;;;;119113;1188;25114;-72
2022/07/28 01:39:51;;;;;;;;;8.75;7.50;;;30.66;97516.34;;;;118990;1187;25600;-72
2022/07/28 01:42:22;;;;;;;;;8.25;6.00;;;30.63;97514.57;;;;119111;1187;25512;-72
2022/07/28 01:44:52;;;;;;;;;7.50;7.50;;;30.62;97512.45;;;;119113;1188;25406;-72
2022/07/28 01:47:21;;;;;;;;;7.25;6.75;;;30.62;97515.38;;;;118961;1189;25600;-72
2022/07/28 01:49:49;;;;;;;;;6.00;6.00;;;30.60;97516.65;;;;118925;1190;26154;-72
2022/07/28 01:52:18;;;;;;;;;7.25;6.00;;;30.58;97514.04;;;;119002;1189;24955;-72
2022/07/28 01:54:47;;;;;;;;;5.50;5.50;;;30.57;97513.20;;;;118905;1190;25099;-73
2022/07/28 01:57:17;;;;;;;;;7.25;5.25;;;30.56;97519.68;;;;118972;1190;24782;-72
2022/07/28 01:59:47;;;;;;;;;5.75;5.50;;;30.55;97522.89;;;;118915;1190;25339;-72
2022/07/28 02:02:16;;;;;;;;;5.50;5.50;;;30.55;97520.75;;;;118935;1191;25953;-71
2022/07/28 02:04:47;;;;;;;;;9.67;9.67;;;30.54;97523.16;;;;118986;1189;24732;-72
2022/07/28 02:07:17;;;;;;;;;6.25;6.25;;;30.54;97526.01;;;;118992;1189;26085;-73
2022/07/28 02:09:45;;;;;;;;;7.75;6.00;;;30.53;97527.76;;;;118945;1190;25430;-73
2022/07/28 02:12:14;;;;;;;;;9.25;6.75;;;30.53;97529.08;;;;118987;1189;25248;-73
2022/07/28 02:14:45;;;;;;;;;8.50;8.00;;;30.52;97530.65;;;;118955;1190;25767;-73
2022/07/28 02:17:16;;;;;;;;;6.75;6.25;;;30.52;97533.77;;;;119003;1189;25243;-73
2022/07/28 02:19:45;;;;;;;;;8.67;7.00;;;30.52;97537.14;;;;118994;1189;27369;-73
2022/07/28 02:22:14;;;;;;;;;6.00;6.00;;;30.51;97539.52;;;;119011;1190;25418;-73
2022/07/28 02:24:44;;;;;;;;;10.00;8.00;;;30.51;97537.44;;;;119101;1187;24885;-71
2022/07/28 02:27:38;;;;;;;;;5.25;5.25;;;30.53;97541.09;;;;119120;1187;25005;-72
2022/07/28 02:30:13;;;;;;;;;7.75;6.25;;;30.57;97545.78;;;;119112;1188;25446;-72
2022/07/28 02:32:54;;;;;;;;;7.00;7.00;;;30.58;97546.35;;;;119009;1189;25160;-72
2022/07/28 02:35:48;;;;;;;;;5.75;5.75;;;30.58;97552.13;;;;119135;1187;25067;-72
2022/07/28 02:38:23;;;;;;;;;7.25;7.25;;;30.60;97550.81;;;;119105;1188;25917;-72
2022/07/28 02:40:56;;;;;;;;;8.75;7.50;;;30.60;97548.73;;;;118970;1189;25007;-72
2022/07/28 02:43:28;;;;;;;;;5.50;5.50;;;30.58;97549.04;;;;119119;1187;25507;-72
2022/07/28 02:46:19;;;;;;;;;8.75;7.00;;;30.62;97548.38;;;;118986;1189;26314;-73
2022/07/28 02:48:53;;;;;;;;;7.75;7.25;;;30.63;97550.81;;;;119080;1189;25568;-72
2022/07/28 02:51:23;;;;;;;;;7.00;7.00;;;30.62;97554.60;;;;118994;1190;25714;-72
2022/07/28 02:53:52;;;;;;;;;4.00;4.00;;;30.59;97557.16;;;;118939;1189;25474;-73
2022/07/28 02:56:21;;;;;;;;;6.00;6.00;;;30.58;97559.61;;;;118951;1190;25067;-73
2022/07/28 02:58:50;;;;;;;;;6.75;5.50;;;30.55;97561.09;;;;119013;1189;25651;-72
2022/07/28 03:01:18;;;;;;;;;6.00;6.00;;;30.55;97561.36;;;;119045;1189;26287;-72
2022/07/28 03:03:48;;;;;;;;;6.50;5.25;;;30.54;97562.85;;;;119045;1186;25447;-72
2022/07/28 03:06:17;;;;;;;;;5.00;4.33;;;30.54;97561.08;;;;119024;1189;25307;-72
2022/07/28 03:08:45;;;;;;;;;5.25;5.25;;;30.53;97559.81;;;;118924;1189;25402;-73
2022/07/28 03:11:13;;;;;;;;;6.00;6.00;;;30.52;97561.73;;;;119074;1189;25850;-72
2022/07/28 03:13:41;;;;;;;;;5.00;5.00;;;30.51;97567.52;;;;118977;1189;25287;-72
2022/07/28 03:16:10;;;;;;;;;7.00;6.75;;;30.52;97570.19;;;;119068;1187;25837;-73
2022/07/28 03:18:37;;;;;;;;;5.75;5.75;;;30.52;97572.64;;;;119064;1187;25669;-73
2022/07/28 03:21:05;;;;;;;;;7.25;6.50;;;30.50;97572.10;;;;119069;1188;25602;-72
2022/07/28 03:23:42;;;;;;;;;5.50;5.50;;;30.51;97571.98;;;;119019;1188;25500;-73
2022/07/28 03:26:22;;;;;;;;;6.25;5.00;;;30.51;97574.17;;;;119068;1189;24886;-72
2022/07/28 03:28:51;;;;;;;;;8.00;7.25;;;30.54;97574.55;;;;118989;1189;25662;-72
2022/07/28 03:31:19;;;;;;;;;6.00;4.75;;;30.52;97579.10;;;;119023;1188;25067;-72
2022/07/28 03:33:48;;;;;;;;;5.50;5.50;;;30.51;97581.84;;;;119008;1189;25609;-71
2022/07/28 03:36:19;;;;;;;;;5.00;5.00;;;30.52;97579.46;;;;119010;1189;25136;-69
2022/07/28 03:38:59;;;;;;;;;9.00;7.50;;;30.54;97582.29;;;;118953;1189;25514;-70
2022/07/28 03:41:28;;;;;;;;;9.50;9.00;;;30.54;97587.36;;;;118988;1188;25336;-69
2022/07/28 03:43:57;;;;;;;;;4.00;4.00;;;30.51;97591.85;;;;119088;1188;25004;-71
2022/07/28 03:46:26;;;;;;;;;7.00;7.00;;;30.48;97594.42;;;;118954;1190;24818;-74
2022/07/28 03:48:54;;;;;;;;;10.75;8.25;;;30.48;97592.53;;;;118982;1189;25048;-72
2022/07/28 03:51:24;;;;;;;;;7.00;5.50;;;30.48;97589.41;;;;119070;1188;24871;-72
2022/07/28 03:53:52;;;;;;;;;8.25;8.25;;;30.46;97587.29;;;;119009;1189;26201;-74
2022/07/28 03:56:19;;;;;;;;;6.00;6.00;;;30.46;97589.77;;;;118960;1189;25794;-75
2022/07/28 03:58:47;;;;;;;;;8.25;7.25;;;30.43;97592.92;;;;118918;1188;26051;-71
2022/07/28 04:01:15;;;;;;;;;8.25;8.25;;;30.42;97597.84;;;;119100;1187;24744;-70
2022/07/28 04:03:43;;;;;;;;;10.67;9.00;;;30.36;97600.95;;;;118997;1188;25513;-69
2022/07/28 04:06:12;;;;;;;;;11.75;8.25;;;30.34;97599.85;;;;119005;1189;25174;-68
2022/07/28 04:08:40;;;;;;;;;9.00;9.00;;;30.29;97595.55;;;;119006;1189;26312;-68
2022/07/28 04:11:08;;;;;;;;;9.75;8.75;;;30.24;97600.20;;;;119043;1189;25597;-65
2022/07/28 04:13:36;;;;;;;;;10.00;9.00;;;30.15;97603.47;;;;119013;1188;25629;-67
2022/07/28 04:16:05;;;;;;;;;10.25;10.25;;;30.14;97598.77;;;;119069;1187;25391;-67
2022/07/28 04:18:34;;;;;;;;;11.25;8.25;;;30.14;97603.69;;;;119113;1187;25536;-71
2022/07/28 04:21:02;;;;;;;;;12.00;10.00;;;30.13;97607.69;;;;119153;1187;25435;-66
2022/07/28 04:23:30;;;;;;;;;16.00;11.25;;;30.13;97609.59;;;;118886;1189;25410;-72
2022/07/28 04:25:58;;;;;;;;;16.50;10.25;;;30.11;97609.89;;;;118908;1190;25309;-69
2022/07/28 04:28:26;;;;;;;;;10.50;10.50;;;30.11;97608.80;;;;119085;1188;25624;-69
2022/07/28 04:30:53;;;;;;;;;14.75;9.25;;;30.13;97609.26;;;;119006;1188;25532;-68
2022/07/28 04:33:23;;;;;;;;;12.75;9.00;;;30.11;97610.88;;;;119041;1188;25707;-71
2022/07/28 04:35:52;;;;;;;;;17.25;11.75;;;30.12;97612.40;;;;119005;1189;25269;-75
2022/07/28 04:38:19;;;;;;;;;17.00;10.50;;;30.22;97612.14;;;;118949;1188;25240;-66
2022/07/28 04:40:48;;;;;;;;;14.25;11.25;;;30.30;97609.48;;;;119165;1187;25373;-65
2022/07/28 04:43:15;;;;;;;;;14.50;9.75;;;30.27;97604.81;;;;119209;1187;26194;-65
2022/07/28 04:45:45;;;;;;;;;14.33;12.00;;;30.24;97606.49;;;;119158;1188;25585;-66
2022/07/28 04:48:22;;;;;;;;;12.50;11.00;;;30.23;97605.69;;;;118947;1190;26281;-65
2022/07/28 04:50:51;;;;;;;;;11.75;10.75;;;30.18;97607.80;;;;119193;1187;24827;-66
2022/07/28 04:53:21;;;;;;;;;11.50;9.75;;;30.13;97607.14;;;;119174;1188;25110;-66
2022/07/28 04:55:50;;;;;;;;;11.75;10.25;;;30.10;97609.14;;;;119168;1187;25659;-64
2022/07/28 04:58:21;;;;;;;;;8.00;8.00;;;30.04;97606.20;;;;119196;1187;26182;-66
2022/07/28 05:00:50;;;;;;;;;8.50;8.50;;;30.00;97609.37;;;;118963;1189;25101;-66
2022/07/28 05:03:19;;;;;;;;;9.50;9.50;;;30.00;97611.46;;;;118992;1189;25339;-66
2022/07/28 05:05:47;;;;;;;;;10.75;10.00;;;29.95;97610.33;;;;119190;1187;26144;-66
2022/07/28 05:08:23;;;;;;;;;10.00;10.00;;;29.93;97610.42;;;;118948;1189;24949;-66
2022/07/28 05:10:54;;;;;;;;;13.33;10.33;;;29.91;97611.10;;;;119174;1187;24829;-66
2022/07/28 05:13:22;;;;;;;;;10.25;9.00;;;29.91;97613.40;;;;118946;1189;25280;-66
2022/07/28 05:15:50;;;;;;;;;11.75;10.25;;;29.89;97612.64;;;;119169;1187;24971;-66
2022/07/28 05:18:18;;;;;;;;;10.00;8.25;;;29.88;97611.86;;;;119173;1187;24898;-66
2022/07/28 05:20:46;;;;;;;;;11.67;10.33;;;29.82;97615.16;;;;119171;1187;25516;-66
2022/07/28 05:23:16;;;;;;;;;11.25;9.50;;;29.78;97614.79;;;;119134;1187;25199;-66
2022/07/28 05:25:45;;;;;;;;;9.50;8.00;;;29.75;97612.27;;;;119165;1186;25647;-66
2022/07/28 05:28:12;;;;;;;;;9.25;7.50;;;29.69;97611.99;;;;118950;1189;24903;-66
2022/07/28 05:30:40;;;;;;;;;16.00;10.25;;;29.65;97614.59;;;;118978;1188;25372;-66
2022/07/28 05:33:08;;;;;;;;;10.25;10.25;;;29.63;97613.58;;;;119166;1188;24955;-66
2022/07/28 05:35:37;;;;;;;;;8.50;8.50;;;29.60;97616.96;;;;119148;1188;24782;-66
2022/07/28 05:38:05;;;;;;;;;14.25;10.00;;;29.56;97618.47;;;;118981;1189;26400;-66
2022/07/28 05:40:37;;;;;;;;;11.00;10.50;;;29.58;97615.69;;;;119165;1188;25535;-66
2022/07/28 05:43:06;;;;;;;;;13.67;9.67;;;29.56;97616.84;;;;119168;1188;24896;-66
2022/07/28 05:45:34;;;;;;;;;14.33;11.00;;;29.56;97619.08;;;;119027;1187;24997;-67
2022/07/28 05:48:02;;;;;;;;;14.00;12.25;;;29.56;97623.85;;;;119153;1187;25721;-65
2022/07/28 05:50:29;;;;;;;;;9.00;9.00;;;29.56;97624.35;;;;119112;1187;25653;-65
2022/07/28 05:52:57;;;;;;;;;9.00;9.00;;;29.54;97625.48;;;;119163;1186;24687;-64
2022/07/28 05:55:25;;;;;;;;;12.50;10.50;;;29.53;97630.20;;;;118967;1187;25175;-65
2022/07/28 05:57:53;;;;;;;;;10.75;9.75;;;29.50;97630.88;;;;119163;1188;25396;-69
2022/07/28 06:00:22;;;;;;;;;13.00;10.25;;;29.58;97632.98;;;;118971;1189;24833;-71
2022/07/28 06:02:50;;;;;;;;;13.25;10.75;;;29.61;97634.80;;;;119082;1187;25591;-71
2022/07/28 06:05:20;;;;;;;;;12.00;9.25;;;29.52;97637.77;;;;119123;1187;25020;-68
2022/07/28 06:07:49;;;;;;;;;11.00;8.75;;;29.49;97637.61;;;;119155;1187;25471;-69
2022/07/28 06:10:19;;;;;;;;;11.50;11.00;;;29.35;97636.83;;;;119162;1187;25440;-72
2022/07/28 06:12:53;;;;;;;;;13.00;11.00;;;29.36;97633.85;;;;119143;1186;25336;-77
2022/07/28 06:15:24;;;;;;;;;10.25;9.75;;;29.29;97633.04;;;;119155;1188;24830;-80
2022/07/28 06:17:54;;;;;;;;;11.25;9.25;;;29.26;97632.02;;;;118916;1190;25023;-71
2022/07/28 06:20:23;;;;;;;;;9.00;9.00;;;29.45;97633.41;;;;118898;1189;25420;-72
2022/07/28 06:22:53;;;;;;;;;11.25;10.00;;;29.46;97635.80;;;;119134;1186;25527;-70
2022/07/28 06:25:24;;;;;;;;;12.75;10.50;;;29.47;97638.06;;;;119136;1187;25262;-70
2022/07/28 06:27:58;;;;;;;;;9.25;8.75;;;29.46;97635.47;;;;119114;1188;25114;-69
2022/07/28 06:30:26;;;;;;;;;13.00;9.25;;;29.50;97636.94;;;;118931;1189;26107;-69
2022/07/28 06:32:55;;;;;;;;;8.50;8.50;;;29.46;97638.45;;;;118930;1189;25617;-69
2022/07/28 06:35:24;;;;;;;;;12.75;12.75;;;29.44;97639.18;;;;118915;1189;25190;-69
2022/07/28 06:37:52;;;;;;;;;9.75;9.50;;;29.43;97640.43;;;;119135;1187;24770;-70
2022/07/28 06:40:21;;;;;;;;;10.00;9.25;;;29.41;97639.55;;;;119154;1187;25786;-72
2022/07/28 06:42:50;;;;;;;;;14.50;10.50;;;29.38;97639.44;;;;118904;1189;25550;-68
2022/07/28 06:45:19;;;;;;;;;13.00;10.25;;;29.40;97640.09;;;;119166;1187;25597;-69
2022/07/28 06:47:49;;;;;;;;;14.00;11.50;;;29.40;97642.45;;;;119174;1186;26154;-69
2022/07/28 06:50:17;;;;;;;;;15.25;10.75;;;29.39;97640.91;;;;119148;1187;25587;-72
2022/07/28 06:52:54;;;;;;;;;9.00;7.00;;;29.45;97639.00;;;;119108;1188;24885;-72
2022/07/28 06:55:22;;;;;;;;;9.50;9.50;;;29.46;97637.57;;;;119134;1187;25657;-75
2022/07/28 06:57:50;;;;;;;;;12.50;11.75;;;29.47;97635.99;;;;118946;1190;25109;-72
2022/07/28 07:00:18;;;;;;;;;10.50;7.75;;;29.51;97637.41;;;;119137;1187;25013;-71
2022/07/28 07:02:46;;;;;;;;;15.25;12.75;;;29.55;97632.58;;;;118895;1189;24918;-71
2022/07/28 07:05:14;;;;;;;;;13.00;11.50;;;29.62;97633.73;;;;118948;1189;25291;-68
2022/07/28 07:07:43;;;;;;;;;13.50;13.25;;;29.63;97633.71;;;;118954;1189;25118;-72
2022/07/28 07:10:11;;;;;;;;;10.50;7.00;;;29.63;97634.08;;;;118944;1189;26326;-71
2022/07/28 07:12:39;;;;;;;;;11.75;11.50;;;29.58;97633.73;;;;119127;1188;25290;-68
2022/07/28 07:15:07;;;;;;;;;13.00;13.00;;;29.59;97631.72;;;;119088;1187;25447;-65
2022/07/28 07:17:38;;;;;;;;;18.00;14.75;;;29.64;97630.63;;;;119126;1188;24987;-68
2022/07/28 07:20:08;;;;;;;;;14.50;14.25;;;29.67;97632.25;;;;118924;1189;24852;-67
2022/07/28 07:22:46;;;;;;;;;17.75;12.50;;;29.68;97633.89;;;;118933;1189;24880;-71
2022/07/28 07:25:15;;;;;;;;;13.50;13.50;;;29.72;97634.52;;;;119103;1188;25290;-70
2022/07/28 07:27:45;;;;;;;;;16.00;14.67;;;29.76;97634.73;;;;118956;1186;26000;-69
2022/07/28 07:30:14;;;;;;;;;14.50;13.25;;;29.78;97632.30;;;;118955;1188;26065;-72
2022/07/28 07:32:43;;;;;;;;;13.67;12.00;;;29.78;97631.67;;;;119128;1188;24979;-71
2022/07/28 07:35:11;;;;;;;;;14.00;13.75;;;29.75;97626.98;;;;119104;1187;25574;-71
2022/07/28 07:37:39;;;;;;;;;12.25;11.50;;;29.75;97623.84;;;;119128;1187;24981;-71
2022/07/28 07:40:08;;;;;;;;;15.50;13.00;;;29.75;97628.77;;;;119122;1187;25929;-68
2022/07/28 07:42:36;;;;;;;;;13.00;10.75;;;29.76;97628.34;;;;119088;1186;24779;-68
2022/07/28 07:45:05;;;;;;;;;11.25;9.00;;;29.81;97626.90;;;;119134;1187;25364;-70
2022/07/28 07:47:32;;;;;;;;;16.25;14.75;;;29.83;97625.48;;;;118977;1189;25546;-67
2022/07/28 07:50:00;;;;;;;;;16.33;15.67;;;29.85;97620.80;;;;119120;1187;25899;-67
2022/07/28 07:52:31;;;;;;;;;12.25;10.50;;;29.89;97619.70;;;;118902;1189;24976;-67
2022/07/28 07:54:58;;;;;;;;;18.75;13.25;;;29.91;97621.29;;;;119091;1188;25837;-66
2022/07/28 07:57:26;;;;;;;;;18.00;17.00;;;29.91;97623.75;;;;119115;1187;25605;-68
2022/07/28 07:59:54;;;;;;;;;19.00;16.75;;;29.95;97620.39;;;;118940;1189;25129;-67
2022/07/28 08:02:22;;;;;;;;;18.75;15.25;;;29.95;97622.71;;;;119142;1188;25570;-67
2022/07/28 08:04:50;;;;;;;;;22.00;20.00;;;29.99;97621.31;;;;119155;1188;24796;-66
2022/07/28 08:07:18;;;;;;;;;23.33;18.67;;;30.04;97619.75;;;;119182;1187;26406;-68
2022/07/28 08:09:48;;;;;;;;;19.75;17.25;;;30.12;97622.19;;;;119017;1187;25899;-68
2022/07/28 08:12:18;;;;;;;;;16.00;13.00;;;30.15;97621.66;;;;119135;1186;24809;-71
2022/07/28 08:14:53;;;;;;;;;17.75;16.50;;;30.14;97624.07;;;;118945;1190;25081;-72
2022/07/28 08:17:21;;;;;;;;;17.25;17.25;;;30.13;97624.42;;;;119148;1187;25710;-65
2022/07/28 08:19:53;;;;;;;;;13.00;13.00;;;30.17;97623.88;;;;119150;1188;25692;-66
2022/07/28 08:22:22;;;;;;;;;15.50;12.75;;;30.16;97624.00;;;;119140;1187;25736;-65
2022/07/28 08:24:50;;;;;;;;;22.50;19.75;;;30.15;97622.39;;;;119171;1187;24931;-66
2022/07/28 08:27:18;;;;;;;;;21.50;16.50;;;30.17;97624.23;;;;118990;1189;26177;-65
2022/07/28 08:29:46;;;;;;;;;16.25;15.75;;;30.16;97627.16;;;;119179;1186;25462;-66
2022/07/28 08:32:14;;;;;;;;;20.75;18.75;;;30.16;97627.10;;;;119181;1187;25147;-65
2022/07/28 08:34:42;;;;;;;;;17.50;17.50;;;30.16;97624.89;;;;119229;1187;25133;-65
2022/07/28 08:37:10;;;;;;;;;20.50;19.50;;;30.20;97625.13;;;;119155;1187;26269;-66
2022/07/28 08:39:38;;;;;;;;;18.50;17.75;;;30.21;97624.69;;;;119183;1188;25493;-66
2022/07/28 08:42:16;;;;;;;;;19.00;13.33;;;30.25;97623.59;;;;119140;1187;25518;-66
2022/07/28 08:45:04;;;;;;;;;18.75;18.75;;;30.33;97624.86;;;;118990;1189;24759;-66
2022/07/28 08:47:34;;;;;;;;;23.00;18.50;;;30.46;97628.64;;;;119197;1187;26315;-67
2022/07/28 08:50:23;;;;;;;;;19.33;19.33;;;30.55;97628.42;;;;119211;1188;24714;-66
2022/07/28 08:52:52;;;;;;;;;22.00;19.50;;;30.51;97630.42;;;;119201;1187;25434;-67
2022/07/28 08:55:25;;;;;;;;;16.50;16.00;;;30.48;97627.84;;;;119104;1188;25309;-70
2022/07/28 08:57:59;;;;;;;;;14.00;14.00;;;30.49;97625.30;;;;118947;1189;25881;-67
2022/07/28 09:00:28;;;;;;;;;25.75;20.00;;;30.48;97633.46;;;;119221;1187;25687;-66
2022/07/28 09:02:56;;;;;;;;;20.50;19.50;;;30.47;97627.86;;;;118938;1190;26193;-65
2022/07/28 09:05:24;;;;;;;;;21.75;19.75;;;30.47;97628.32;;;;119188;1186;25045;-64
2022/07/28 09:07:53;;;;;;;;;20.75;18.00;;;30.47;97623.73;;;;118951;1188;25719;-64
2022/07/28 09:10:22;;;;;;;;;18.50;16.75;;;30.52;97624.10;;;;119196;1188;25722;-68
2022/07/28 09:12:51;;;;;;;;;19.00;16.25;;;30.53;97622.61;;;;119157;1188;26243;-66
2022/07/28 09:15:19;;;;;;;;;20.33;17.00;;;30.55;97622.25;;;;119180;1188;25422;-65
2022/07/28 09:17:46;;;;;;;;;19.00;15.50;;;30.54;97625.15;;;;118997;1189;25281;-67
2022/07/28 09:20:15;;;;;;;;;18.00;16.00;;;30.55;97622.27;;;;119186;1187;24986;-68
2022/07/28 09:23:04;;;;;;;;;16.50;16.00;;;30.56;97624.04;;;;118988;1188;25308;-66
2022/07/28 09:26:07;;;;;;;;;20.75;17.25;;;30.71;97621.90;;;;119129;1186;26769;-67
2022/07/28 09:28:55;;;;;;;;;12.00;11.00;;;30.78;97623.54;;;;119181;1188;24985;-67
2022/07/28 09:31:27;;;;;;;;;16.00;12.75;;;30.80;97620.38;;;;119146;1187;25190;-65
2022/07/28 09:34:03;;;;;;;;;14.50;14.50;;;30.77;97619.45;;;;118973;1189;24860;-68
2022/07/28 09:36:39;;;;;;;;;19.50;16.50;;;30.77;97619.23;;;;119147;1187;25213;-69
2022/07/28 09:39:10;;;;;;;;;17.50;15.00;;;30.77;97615.33;;;;118900;1188;24807;-69
2022/07/28 09:41:49;;;;;;;;;16.50;15.25;;;30.76;97614.30;;;;119163;1187;25585;-69
2022/07/28 09:44:19;;;;;;;;;15.25;13.00;;;30.76;97615.98;;;;118971;1188;25077;-69
2022/07/28 09:46:48;;;;;;;;;13.50;13.25;;;30.75;97617.02;;;;119149;1188;25273;-67
2022/07/28 09:49:16;;;;;;;;;13.25;13.25;;;30.79;97618.18;;;;119140;1188;25664;-67
2022/07/28 09:52:02;;;;;;;;;20.00;17.50;;;30.79;97618.06;;;;119190;1188;24895;-65
2022/07/28 09:54:30;;;;;;;;;19.75;16.25;;;30.84;97618.79;;;;119175;1187;25564;-66
2022/07/28 09:56:58;;;;;;;;;17.00;17.00;;;30.76;97617.13;;;;119112;1188;25683;-66
2022/07/28 09:59:39;;;;;;;;;18.67;15.67;;;30.77;97616.60;;;;119168;1187;25095;-65
2022/07/28 10:02:11;;;;;;;;;17.25;16.00;;;30.86;97616.05;;;;118981;1190;25884;-66
2022/07/28 10:04:40;;;;;;;;;20.25;14.25;;;30.87;97614.58;;;;118984;1188;26908;-72
2022/07/28 10:07:12;;;;;;;;;15.25;12.25;;;30.86;97613.72;;;;118947;1188;25447;-66
2022/07/28 10:09:41;;;;;;;;;15.67;13.33;;;30.87;97617.14;;;;119193;1187;25662;-65
2022/07/28 10:12:20;;;;;;;;;16.50;13.50;;;30.91;97617.95;;;;119169;1187;25029;-65
2022/07/28 10:14:50;;;;;;;;;18.00;13.75;;;30.99;97614.02;;;;118999;1188;24890;-65
2022/07/28 10:17:30;;;;;;;;;12.00;11.00;;;31.04;97614.08;;;;119012;1189;25072;-65
2022/07/28 10:20:00;;;;;;;;;14.75;14.50;;;31.09;97608.63;;;;119148;1187;25599;-65
2022/07/28 10:22:32;;;;;;;;;19.25;12.75;;;31.02;97604.87;;;;119153;1187;25713;-64
2022/07/28 10:25:03;;;;;;;;;15.00;11.50;;;31.00;97602.34;;;;119165;1187;25449;-65
2022/07/28 10:27:31;;;;;;;;;11.50;11.00;;;30.98;97598.36;;;;119123;1188;25269;-64
2022/07/28 10:30:01;;;;;;;;;16.00;13.50;;;30.95;97596.55;;;;118993;1188;25216;-64
2022/07/28 10:32:32;;;;;;;;;13.67;11.33;;;30.95;97595.41;;;;119192;1187;25638;-64
2022/07/28 10:35:18;;;;;;;;;12.00;11.75;;;30.98;97592.60;;;;119172;1187;25888;-64
2022/07/28 10:37:49;;;;;;;;;14.75;12.25;;;31.06;97592.89;;;;119008;1188;26345;-65
2022/07/28 10:40:18;;;;;;;;;10.75;9.25;;;31.08;97594.29;;;;119166;1188;24719;-64
2022/07/28 10:42:46;;;;;;;;;10.00;10.00;;;31.06;97594.62;;;;118992;1188;25734;-66
2022/07/28 10:45:15;;;;;;;;;14.00;12.50;;;31.04;97589.05;;;;119009;1189;25415;-67
2022/07/28 10:47:44;;;;;;;;;11.75;10.50;;;31.02;97588.60;;;;118942;1187;25495;-67
2022/07/28 10:50:12;;;;;;;;;15.50;13.25;;;31.11;97585.70;;;;119159;1188;26145;-67
2022/07/28 10:52:41;;;;;;;;;15.25;13.25;;;31.15;97584.04;;;;119125;1187;26093;-66
2022/07/28 10:55:32;;;;;;;;;12.00;10.75;;;31.20;97581.08;;;;119130;1186;24741;-67
2022/07/28 10:58:06;;;;;;;;;12.75;12.75;;;31.20;97576.15;;;;119132;1188;25235;-67
2022/07/28 11:00:51;;;;;;;;;12.00;11.00;;;31.10;97578.78;;;;119149;1188;25580;-67
2022/07/28 11:03:38;;;;;;;;;11.75;9.50;;;31.19;97575.48;;;;119172;1188;25134;-67
2022/07/28 11:06:34;;;;;;;;;9.50;8.75;;;31.22;97573.91;;;;119131;1188;24728;-66
2022/07/28 11:09:14;;;;;;;;;11.25;10.00;;;31.29;97573.48;;;;119090;1188;25313;-64
2022/07/28 11:11:52;;;;;;;;;9.25;9.25;;;31.31;97570.48;;;;119125;1187;25596;-64
2022/07/28 11:14:23;;;;;;;;;14.50;11.25;;;31.32;97573.17;;;;119135;1187;26493;-67
2022/07/28 11:17:00;;;;;;;;;9.25;8.75;;;31.29;97570.94;;;;119131;1188;24917;-67
2022/07/28 11:19:43;;;;;;;;;12.50;12.50;;;31.31;97566.48;;;;119120;1187;25438;-66
2022/07/28 11:22:32;;;;;;;;;12.25;11.00;;;31.39;97564.85;;;;119114;1187;25368;-66
2022/07/28 11:25:01;;;;;;;;;16.50;13.00;;;31.42;97556.08;;;;119168;1187;25573;-66
2022/07/28 11:27:49;;;;;;;;;8.25;8.25;;;31.48;97554.63;;;;119124;1186;24940;-68
2022/07/28 11:30:17;;;;;;;;;12.33;11.33;;;31.49;97557.55;;;;119143;1187;25542;-65
2022/07/28 11:32:49;;;;;;;;;14.25;11.25;;;31.49;97557.36;;;;119153;1187;25587;-66
2022/07/28 11:35:21;;;;;;;;;11.00;11.00;;;31.49;97554.58;;;;119130;1187;25327;-66
2022/07/28 11:38:01;;;;;;;;;11.25;11.00;;;31.50;97552.91;;;;119130;1187;24938;-66
2022/07/28 11:40:36;;;;;;;;;10.00;9.75;;;31.54;97555.96;;;;119159;1187;24786;-67
2022/07/28 11:43:29;;;;;;;;;12.33;11.33;;;31.55;97552.77;;;;118915;1190;24944;-67
2022/07/28 11:46:03;;;;;;;;;12.25;11.00;;;31.61;97548.70;;;;119114;1186;25259;-67
2022/07/28 11:48:39;;;;;;;;;9.00;7.00;;;31.61;97548.65;;;;119116;1187;24772;-66
2022/07/28 11:51:11;;;;;;;;;8.75;8.75;;;31.58;97546.97;;;;119145;1187;25347;-69
2022/07/28 11:53:45;;;;;;;;;11.33;11.33;;;31.62;97549.53;;;;118991;1189;25049;-67
2022/07/28 11:56:15;;;;;;;;;12.25;12.25;;;31.64;97546.48;;;;119205;1187;25588;-67
2022/07/28 11:58:43;;;;;;;;;12.00;12.00;;;31.67;97544.88;;;;119294;1186;25090;-66
2022/07/28 12:01:15;;;;;;;;;11.75;11.25;;;31.73;97542.39;;;;119235;1188;25742;-68
2022/07/28 12:03:47;;;;;;;;;12.50;10.75;;;31.86;97541.09;;;;119185;1187;25962;-68
2022/07/28 12:06:24;;;;;;;;;9.25;8.75;;;31.88;97535.91;;;;119179;1186;25697;-66
2022/07/28 12:08:58;;;;;;;;;12.25;12.25;;;31.85;97536.40;;;;119152;1187;25425;-66
2022/07/28 12:11:35;;;;;;;;;12.00;11.25;;;31.83;97538.41;;;;119021;1188;24852;-66
2022/07/28 12:14:11;;;;;;;;;11.00;11.00;;;31.87;97538.83;;;;119197;1186;25466;-67
2022/07/28 12:16:44;;;;;;;;;11.33;10.67;;;31.85;97537.60;;;;119158;1186;25060;-67
2022/07/28 12:19:16;;;;;;;;;13.75;11.75;;;31.86;97537.58;;;;119149;1187;26272;-66